createdAt,value
2023-01-03T00:00:56.076Z,94.78
2023-01-03T00:03:22.546Z,95.08
2023-01-03T00:05:49.518Z,94.99
2023-01-03T00:08:16.132Z,94.58
2023-01-03T00:10:42.865Z,94.56
2023-01-03T00:13:10.207Z,94.55
2023-01-03T00:15:38.539Z,95.00
2023-01-03T00:18:05.636Z,94.41
2023-01-03T00:20:34.150Z,95.14
2023-01-03T00:23:02.179Z,94.22
2023-01-03T00:25:29.629Z,95.08
2023-01-03T00:27:56.187Z,94.59
2023-01-03T00:30:23.965Z,95.23
2023-01-03T00:32:50.533Z,95.22
2023-01-03T00:35:17.068Z,95.48
2023-01-03T00:37:43.610Z,95.43
2023-01-03T00:40:10.697Z,95.08
2023-01-03T00:42:57.232Z,95.27
2023-01-03T00:45:25.792Z,95.29
2023-01-03T00:47:52.984Z,94.80
2023-01-03T00:50:19.555Z,94.98
2023-01-03T00:52:46.067Z,95.24
2023-01-03T00:55:12.668Z,95.22
2023-01-03T00:57:39.444Z,94.95
2023-01-03T01:00:06.601Z,94.91
2023-01-03T01:02:33.207Z,94.50
2023-01-03T01:04:59.918Z,94.78
2023-01-03T01:07:26.508Z,94.80
2023-01-03T01:09:53.092Z,94.15
2023-01-03T01:12:19.607Z,94.42
2023-01-03T01:14:46.166Z,94.61
2023-01-03T01:17:16.559Z,94.32
2023-01-03T01:19:45.696Z,93.84
2023-01-03T01:22:12.408Z,93.80
2023-01-03T01:24:39.890Z,93.79
2023-01-03T01:27:07.076Z,94.30
2023-01-03T01:29:33.570Z,93.87
2023-01-03T01:32:01.826Z,93.31
2023-01-03T01:34:29.087Z,93.59
2023-01-03T01:36:55.970Z,93.77
2023-01-03T01:39:25.783Z,94.28
2023-01-03T01:42:30.763Z,94.28
2023-01-03T01:45:02.630Z,94.52
2023-01-03T01:47:39.945Z,94.66
2023-01-03T01:50:37.830Z,94.79
2023-01-03T01:53:20.357Z,95.13
2023-01-03T01:55:53.803Z,95.60
2023-01-03T01:58:22.461Z,95.51
2023-01-03T02:00:49.104Z,95.47
2023-01-03T02:03:15.661Z,95.20
2023-01-03T02:05:46.149Z,95.00
2023-01-03T02:08:12.870Z,95.25
2023-01-03T02:10:58.015Z,95.55
2023-01-03T02:13:37.658Z,95.27
2023-01-03T02:16:21.094Z,95.75
2023-01-03T02:19:46.363Z,95.71
2023-01-03T02:22:37.941Z,96.01
2023-01-03T02:25:44.033Z,96.03
2023-01-03T02:28:38.413Z,96.89
2023-01-03T02:31:34.074Z,96.87
2023-01-03T02:34:09.827Z,97.01
2023-01-03T02:37:30.647Z,97.87
2023-01-03T02:40:02.510Z,97.83
2023-01-03T02:42:58.677Z,98.22
2023-01-03T02:45:49.467Z,98.42
2023-01-03T02:48:28.907Z,98.77
2023-01-03T02:50:59.016Z,98.75
2023-01-03T02:53:30.201Z,98.87
2023-01-03T02:56:03.570Z,99.08
2023-01-03T02:58:33.901Z,99.19
2023-01-03T03:01:02.930Z,99.56
2023-01-03T03:03:37.394Z,99.62
2023-01-03T03:06:23.733Z,99.76
2023-01-03T03:08:50.339Z,100.00
2023-01-03T03:11:35.861Z,99.81
2023-01-03T03:14:22.653Z,100.00
2023-01-03T03:16:52.059Z,100.00
2023-01-03T03:19:40.881Z,99.72
2023-01-03T03:22:47.420Z,100.00
2023-01-03T03:25:26.724Z,100.00
2023-01-03T03:28:16.856Z,100.00
2023-01-03T03:30:45.859Z,99.86
2023-01-03T03:33:15.404Z,100.00
2023-01-03T03:35:49.240Z,100.00
2023-01-03T03:38:25.601Z,99.44
2023-01-03T03:41:18.356Z,99.64
2023-01-03T03:44:27.892Z,99.21
2023-01-03T03:47:06.862Z,98.24
2023-01-03T03:49:38.029Z,97.89
2023-01-03T03:52:09.460Z,97.18
2023-01-03T03:54:38.495Z,97.40
2023-01-03T03:57:20.959Z,97.32
2023-01-03T03:59:51.767Z,97.17
2023-01-03T04:02:20.434Z,96.87
2023-01-03T04:04:49.670Z,97.17
2023-01-03T04:07:16.261Z,96.94
2023-01-03T04:09:42.902Z,97.37
2023-01-03T04:12:09.445Z,96.84
2023-01-03T04:14:35.919Z,97.44
2023-01-03T04:17:02.661Z,97.53
2023-01-03T04:19:29.230Z,97.20
2023-01-03T04:21:55.793Z,96.87
2023-01-03T04:24:22.493Z,97.12
2023-01-03T04:26:49.082Z,97.20
2023-01-03T04:29:15.669Z,97.01
2023-01-03T04:31:42.414Z,97.28
2023-01-03T04:34:08.979Z,97.37
2023-01-03T04:36:35.551Z,97.16
2023-01-03T04:39:02.088Z,96.78
2023-01-03T04:41:28.607Z,96.86
2023-01-03T04:44:04.934Z,96.31
2023-01-03T04:46:38.260Z,96.75
2023-01-03T04:49:06.626Z,96.41
2023-01-03T04:51:33.358Z,96.43
2023-01-03T04:54:00.006Z,96.46
2023-01-03T04:56:32.793Z,96.42
2023-01-03T04:58:59.995Z,96.24
2023-01-03T05:01:26.763Z,95.94
2023-01-03T05:03:58.561Z,95.72
2023-01-03T05:06:25.268Z,95.65
2023-01-03T05:08:51.851Z,95.80
2023-01-03T05:11:18.754Z,95.32
2023-01-03T05:13:45.358Z,95.16
2023-01-03T05:16:14.761Z,94.90
2023-01-03T05:18:42.251Z,95.01
2023-01-03T05:21:36.053Z,94.32
2023-01-03T05:24:21.361Z,94.36
2023-01-03T05:26:48.313Z,94.69
2023-01-03T05:29:19.249Z,94.73
2023-01-03T05:31:46.195Z,94.68
2023-01-03T05:34:13.086Z,94.81
2023-01-03T05:36:39.784Z,94.78
2023-01-03T05:39:07.292Z,95.09
2023-01-03T05:41:52.764Z,94.72
2023-01-03T05:44:19.418Z,94.71
2023-01-03T05:46:45.948Z,95.25
2023-01-03T05:49:12.825Z,95.06
2023-01-03T05:51:39.448Z,94.97
2023-01-03T05:54:06.492Z,95.17
2023-01-03T05:56:33.599Z,95.33
2023-01-03T05:59:00.573Z,95.91
2023-01-03T06:01:28.403Z,96.31
2023-01-03T06:03:55.680Z,96.50
2023-01-03T06:06:22.354Z,96.22
2023-01-03T06:08:49.647Z,96.27
2023-01-03T06:11:17.424Z,96.79
2023-01-03T06:13:45.097Z,96.96
2023-01-03T06:16:33.591Z,96.64
2023-01-03T06:19:01.414Z,96.19
2023-01-03T06:21:28.127Z,95.73
2023-01-03T06:23:55.781Z,95.49
2023-01-03T06:26:24.474Z,95.53
2023-01-03T06:28:51.924Z,95.93
2023-01-03T06:31:18.804Z,95.37
2023-01-03T06:33:46.070Z,95.07
2023-01-03T06:36:14.676Z,95.14
2023-01-03T06:38:41.753Z,95.61
2023-01-03T06:41:08.898Z,95.13
2023-01-03T06:43:35.715Z,95.72
2023-01-03T06:46:21.303Z,96.08
2023-01-03T06:49:06.316Z,96.51
2023-01-03T06:51:52.395Z,96.58
2023-01-03T06:54:32.307Z,96.78
2023-01-03T06:56:59.142Z,96.75
2023-01-03T06:59:26.490Z,96.43
2023-01-03T07:01:54.412Z,96.58
2023-01-03T07:04:22.499Z,96.30
2023-01-03T07:06:49.418Z,96.43
2023-01-03T07:09:16.241Z,96.05
2023-01-03T07:11:42.980Z,95.85
2023-01-03T07:14:11.451Z,95.39
2023-01-03T07:16:43.678Z,95.59
2023-01-03T07:19:14.358Z,95.50
2023-01-03T07:21:41.177Z,95.19
2023-01-03T07:24:10.851Z,95.28
2023-01-03T07:26:37.568Z,95.54
2023-01-03T07:29:06.175Z,96.31
2023-01-03T07:31:32.983Z,96.40
2023-01-03T07:34:00.577Z,96.04
2023-01-03T07:36:27.584Z,96.27
2023-01-03T07:38:55.690Z,96.18
2023-01-03T07:41:22.785Z,96.22
2023-01-03T07:43:49.755Z,95.85
2023-01-03T07:46:24.114Z,95.64
2023-01-03T07:48:53.040Z,96.15
2023-01-03T07:51:22.005Z,95.94
2023-01-03T07:53:53.119Z,95.99
2023-01-03T07:56:21.522Z,95.90
2023-01-03T07:58:49.325Z,96.32
2023-01-03T08:01:21.114Z,96.46
2023-01-03T08:03:48.308Z,96.54
2023-01-03T08:06:18.657Z,96.51
2023-01-03T08:08:45.849Z,96.32
2023-01-03T08:11:32.959Z,96.52
2023-01-03T08:13:59.651Z,96.74
2023-01-03T08:16:26.385Z,96.39
2023-01-03T08:18:52.978Z,96.58
2023-01-03T08:21:19.821Z,96.52
2023-01-03T08:23:48.737Z,97.12
2023-01-03T08:26:16.774Z,97.27
2023-01-03T08:28:44.614Z,97.46
2023-01-03T08:31:33.103Z,97.45
2023-01-03T08:34:05.454Z,97.86
2023-01-03T08:36:57.678Z,98.27
2023-01-03T08:39:27.608Z,98.23
2023-01-03T08:42:02.157Z,98.19
2023-01-03T08:44:28.740Z,98.29
2023-01-03T08:46:59.716Z,98.12
2023-01-03T08:49:26.864Z,97.83
2023-01-03T08:51:53.326Z,97.53
2023-01-03T08:54:19.915Z,97.72
2023-01-03T08:56:46.381Z,97.50
2023-01-03T08:59:12.915Z,97.06
2023-01-03T09:01:40.340Z,97.30
2023-01-03T09:04:07.280Z,97.03
2023-01-03T09:06:34.180Z,96.96
2023-01-03T09:09:08.773Z,97.06
2023-01-03T09:11:36.136Z,97.20
2023-01-03T09:14:02.675Z,97.07
2023-01-03T09:16:29.288Z,97.15
2023-01-03T09:18:56.185Z,97.45
2023-01-03T09:21:23.078Z,97.40
2023-01-03T09:23:49.548Z,96.87
2023-01-03T09:26:16.034Z,97.68
2023-01-03T09:28:42.509Z,97.37
2023-01-03T09:31:09.027Z,97.62
2023-01-03T09:33:35.725Z,97.71
2023-01-03T09:36:02.505Z,97.44
2023-01-03T09:38:29.289Z,97.49
2023-01-03T09:41:02.589Z,97.69
2023-01-03T09:43:36.914Z,97.74
2023-01-03T09:46:05.950Z,97.94
2023-01-03T09:48:35.802Z,98.29
2023-01-03T09:51:19.672Z,98.61
2023-01-03T09:54:08.528Z,98.20
2023-01-03T09:56:53.471Z,98.40
2023-01-03T09:59:38.616Z,98.30
2023-01-03T10:03:01.035Z,98.92
2023-01-03T10:05:50.021Z,98.67
2023-01-03T10:08:29.274Z,98.67
2023-01-03T10:11:13.504Z,98.19
2023-01-03T10:13:52.720Z,98.17
2023-01-03T10:16:48.015Z,98.58
2023-01-03T10:19:32.600Z,98.71
2023-01-03T10:22:02.059Z,98.81
2023-01-03T10:24:36.709Z,98.82
2023-01-03T10:27:17.537Z,99.10
2023-01-03T10:29:46.071Z,99.26
2023-01-03T10:32:28.725Z,99.07
2023-01-03T10:35:16.815Z,98.97
2023-01-03T10:37:44.643Z,99.17
2023-01-03T10:40:13.174Z,98.78
2023-01-03T10:42:41.625Z,98.73
2023-01-03T10:45:13.597Z,98.63
2023-01-03T10:47:40.399Z,98.27
2023-01-03T10:50:08.223Z,98.04
2023-01-03T10:52:39.400Z,98.05
2023-01-03T10:55:18.487Z,98.13
2023-01-03T10:57:58.419Z,97.82
2023-01-03T11:00:29.007Z,97.98
2023-01-03T11:03:01.806Z,97.05
2023-01-03T11:05:28.472Z,96.79
2023-01-03T11:07:58.040Z,96.66
2023-01-03T11:10:33.829Z,97.05
2023-01-03T11:13:00.316Z,96.70
2023-01-03T11:15:38.221Z,95.43
2023-01-03T11:18:20.684Z,95.18
2023-01-03T11:21:13.945Z,94.32
2023-01-03T11:24:04.502Z,93.79
2023-01-03T11:26:51.094Z,90.85
2023-01-03T11:29:45.276Z,91.16
2023-01-03T11:32:30.167Z,91.20
2023-01-03T11:35:35.160Z,90.57
2023-01-03T11:38:31.668Z,89.66
2023-01-03T11:41:16.232Z,89.95
2023-01-03T11:44:26.854Z,89.17
2023-01-03T11:47:20.369Z,88.85
2023-01-03T11:50:01.662Z,87.13
2023-01-03T11:52:37.163Z,87.10
2023-01-03T11:55:22.469Z,87.46
2023-01-03T11:58:16.386Z,86.13
2023-01-03T12:01:25.654Z,86.46
2023-01-03T12:03:55.144Z,85.50
2023-01-03T12:06:38.534Z,84.58
2023-01-03T12:09:13.052Z,84.08
2023-01-03T12:11:59.304Z,83.81
2023-01-03T12:14:39.982Z,83.45
2023-01-03T12:17:16.273Z,83.11
2023-01-03T12:19:59.967Z,82.76
2023-01-03T12:22:49.564Z,83.17
2023-01-03T12:25:30.191Z,82.46
2023-01-03T12:28:03.909Z,81.77
2023-01-03T12:30:38.528Z,81.14
2023-01-03T12:33:16.656Z,81.16
2023-01-03T12:36:18.788Z,81.33
2023-01-03T12:38:59.435Z,81.59
2023-01-03T12:41:36.512Z,82.21
2023-01-03T12:44:08.024Z,82.45
2023-01-03T12:46:41.354Z,82.69
2023-01-03T12:49:21.454Z,82.49
2023-01-03T12:51:48.160Z,83.07
2023-01-03T12:55:04.553Z,83.45
2023-01-03T12:58:03.523Z,83.45
2023-01-03T13:01:15.787Z,83.86
2023-01-03T13:03:49.186Z,84.07
2023-01-03T13:06:15.912Z,84.10
2023-01-03T13:08:49.144Z,83.04
2023-01-03T13:11:34.525Z,82.63
2023-01-03T13:14:16.101Z,83.12
2023-01-03T13:16:49.281Z,82.47
2023-01-03T13:19:22.499Z,82.33
2023-01-03T13:21:55.334Z,82.27
2023-01-03T13:24:45.350Z,82.89
2023-01-03T13:27:20.968Z,83.45
2023-01-03T13:29:50.315Z,83.84
2023-01-03T13:32:28.042Z,83.39
2023-01-03T13:34:57.122Z,83.13
2023-01-03T13:37:28.990Z,83.41
2023-01-03T13:40:02.404Z,82.73
2023-01-03T13:42:33.499Z,82.44
2023-01-03T13:45:15.285Z,83.04
2023-01-03T13:47:52.110Z,83.27
2023-01-03T13:50:32.367Z,82.81
2023-01-03T13:53:08.609Z,82.59
2023-01-03T13:55:54.810Z,82.71
2023-01-03T13:58:30.909Z,82.59
2023-01-03T14:01:09.231Z,82.45
2023-01-03T14:04:10.127Z,81.96
2023-01-03T14:07:05.540Z,81.41
2023-01-03T14:10:11.917Z,81.70
2023-01-03T14:12:50.595Z,81.01
2023-01-03T14:15:26.281Z,81.15
2023-01-03T14:18:01.741Z,80.90
2023-01-03T14:20:32.375Z,80.39
2023-01-03T14:23:23.755Z,80.10
2023-01-03T14:25:52.522Z,79.12
2023-01-03T14:28:23.624Z,79.79
2023-01-03T14:31:02.249Z,80.03
2023-01-03T14:33:37.321Z,79.37
2023-01-03T14:36:08.701Z,79.40
2023-01-03T14:38:36.327Z,79.91
2023-01-03T14:41:03.200Z,80.35
2023-01-03T14:43:32.103Z,80.16
2023-01-03T14:46:07.533Z,79.59
2023-01-03T14:48:34.333Z,80.07
2023-01-03T14:51:03.029Z,79.71
2023-01-03T14:53:32.245Z,80.10
2023-01-03T14:55:59.914Z,80.25
2023-01-03T14:58:33.182Z,80.30
2023-01-03T15:01:02.361Z,80.86
2023-01-03T15:03:33.452Z,81.17
2023-01-03T15:06:01.309Z,80.50
2023-01-03T15:08:31.289Z,80.74
2023-01-03T15:11:05.790Z,80.71
2023-01-03T15:13:43.436Z,81.04
2023-01-03T15:16:22.637Z,81.18
2023-01-03T15:18:49.487Z,80.54
2023-01-03T15:21:18.661Z,81.22
2023-01-03T15:23:47.758Z,81.01
2023-01-03T15:26:27.491Z,81.07
2023-01-03T15:29:05.055Z,81.00
2023-01-03T15:31:46.831Z,81.71
2023-01-03T15:34:23.464Z,81.62
2023-01-03T15:37:00.309Z,81.28
2023-01-03T15:39:36.551Z,81.56
2023-01-03T15:45:19.405Z,82.09
2023-01-03T15:47:47.949Z,81.54
2023-01-03T15:50:18.917Z,81.51
2023-01-03T15:52:49.282Z,81.54
2023-01-03T15:55:17.282Z,82.01
2023-01-03T15:57:51.416Z,81.89
2023-01-03T16:00:22.202Z,82.33
2023-01-03T16:02:49.552Z,82.03
2023-01-03T16:05:22.125Z,81.91
2023-01-03T16:07:50.241Z,82.48
2023-01-03T16:10:16.882Z,81.70
2023-01-03T16:12:43.896Z,82.71
2023-01-03T16:15:20.329Z,83.17
2023-01-03T16:17:47.096Z,82.91
2023-01-03T16:20:16.172Z,83.12
2023-01-03T16:22:57.381Z,84.50
2023-01-03T16:25:26.736Z,84.43
2023-01-03T16:27:53.205Z,84.79
2023-01-03T16:30:19.791Z,84.83
2023-01-03T16:32:46.563Z,84.99
2023-01-03T16:35:18.328Z,85.11
2023-01-03T16:37:45.169Z,85.45
2023-01-03T16:40:17.263Z,85.91
2023-01-03T16:42:43.736Z,86.11
2023-01-03T16:45:11.097Z,85.51
2023-01-03T16:47:38.018Z,85.62
2023-01-03T16:50:08.085Z,85.79
2023-01-03T16:52:37.722Z,85.64
2023-01-03T16:55:11.797Z,85.92
2023-01-03T16:57:38.271Z,85.73
2023-01-03T17:00:18.296Z,85.85
2023-01-03T17:02:45.037Z,85.46
2023-01-03T17:05:12.092Z,85.52
2023-01-03T17:07:38.870Z,86.33
2023-01-03T17:10:06.045Z,85.84
2023-01-03T17:12:33.613Z,86.37
2023-01-03T17:15:00.170Z,86.18
2023-01-03T17:17:26.796Z,86.60
2023-01-03T17:20:04.078Z,87.27
2023-01-03T17:22:32.282Z,87.18
2023-01-03T17:24:58.883Z,87.52
2023-01-03T17:27:31.743Z,88.05
2023-01-03T17:30:05.626Z,88.32
2023-01-03T17:32:32.643Z,88.08
2023-01-03T17:34:59.483Z,88.42
2023-01-03T17:37:26.476Z,88.79
2023-01-03T17:39:56.357Z,89.34
2023-01-03T17:42:24.397Z,90.01
2023-01-03T17:45:30.053Z,89.69
2023-01-03T17:48:15.746Z,90.24
2023-01-03T17:50:42.442Z,90.14
2023-01-03T17:53:12.947Z,90.13
2023-01-03T17:55:39.981Z,90.23
2023-01-03T17:58:06.861Z,90.22
2023-01-03T18:00:33.680Z,90.09
2023-01-03T18:03:01.003Z,90.49
2023-01-03T18:05:29.984Z,89.91
2023-01-03T18:07:58.778Z,89.96
2023-01-03T18:10:43.831Z,89.79
2023-01-03T18:13:33.444Z,89.10
2023-01-03T18:16:00.368Z,89.04
2023-01-03T18:18:28.216Z,89.26
2023-01-03T18:20:55.749Z,88.98
2023-01-03T18:23:26.075Z,88.92
2023-01-03T18:25:53.441Z,88.86
2023-01-03T18:28:25.603Z,88.79
2023-01-03T18:30:53.305Z,88.59
2023-01-03T18:33:20.485Z,87.83
2023-01-03T18:35:47.744Z,87.75
2023-01-03T18:38:28.212Z,88.36
2023-01-03T18:41:00.753Z,87.56
2023-01-03T18:43:31.913Z,87.26
2023-01-03T18:45:58.715Z,87.56
2023-01-03T18:48:25.497Z,87.12
2023-01-03T18:50:58.331Z,87.01
2023-01-03T18:53:29.583Z,86.90
2023-01-03T18:55:56.352Z,87.05
2023-01-03T18:58:36.671Z,86.99
2023-01-03T19:01:05.048Z,87.22
2023-01-03T19:03:33.386Z,86.60
2023-01-03T19:06:01.536Z,85.96
2023-01-03T19:08:32.273Z,86.18
2023-01-03T19:11:07.556Z,86.44
2023-01-03T19:13:50.161Z,86.88
2023-01-03T19:16:25.575Z,86.80
2023-01-03T19:18:52.805Z,86.94
2023-01-03T19:21:21.647Z,86.78
2023-01-03T19:23:59.692Z,86.78
2023-01-03T19:26:41.148Z,86.79
2023-01-03T19:29:18.653Z,86.79
2023-01-03T19:31:48.387Z,86.91
2023-01-03T19:34:17.824Z,86.84
2023-01-03T19:36:45.287Z,87.02
2023-01-03T19:39:12.650Z,87.19
2023-01-03T19:42:09.937Z,87.74
2023-01-03T19:44:37.135Z,87.84
2023-01-03T19:47:04.546Z,88.15
2023-01-03T19:49:31.101Z,88.41
2023-01-03T19:51:57.870Z,88.79
2023-01-03T19:54:24.707Z,88.99
2023-01-03T19:56:56.582Z,89.23
2023-01-03T19:59:38.178Z,89.34
2023-01-03T20:02:25.758Z,90.34
2023-01-03T20:04:52.951Z,90.26
2023-01-03T20:07:19.576Z,90.61
2023-01-03T20:09:46.242Z,91.28
2023-01-03T20:12:15.469Z,91.33
2023-01-03T20:14:47.351Z,91.46
2023-01-03T20:17:22.592Z,91.73
2023-01-03T20:19:49.564Z,92.11
2023-01-03T20:22:37.616Z,92.38
2023-01-03T20:25:13.412Z,92.56
2023-01-03T20:27:44.494Z,93.19
2023-01-03T20:30:19.820Z,92.89
2023-01-03T20:32:46.343Z,93.83
2023-01-03T20:36:06.938Z,93.87
2023-01-03T20:38:05.546Z,94.33
2023-01-03T20:40:32.301Z,93.98
2023-01-03T20:43:02.009Z,94.50
2023-01-03T20:45:28.892Z,94.75
2023-01-03T20:47:55.409Z,94.93
2023-01-03T20:50:24.888Z,95.10
2023-01-03T20:52:51.938Z,95.23
2023-01-03T20:55:25.760Z,95.09
2023-01-03T20:57:54.496Z,95.54
2023-01-03T21:00:27.013Z,95.61
2023-01-03T21:02:53.730Z,95.74
2023-01-03T21:05:21.268Z,96.07
2023-01-03T21:08:07.101Z,95.96
2023-01-03T21:10:42.878Z,96.24
2023-01-03T21:13:10.838Z,96.22
2023-01-03T21:15:38.417Z,96.76
2023-01-03T21:18:06.116Z,97.13
2023-01-03T21:20:33.372Z,96.80
2023-01-03T21:23:00.157Z,97.13
2023-01-03T21:25:33.252Z,96.79
2023-01-03T21:28:01.185Z,97.54
2023-01-03T21:30:30.604Z,97.17
2023-01-03T21:32:58.085Z,97.41
2023-01-03T21:35:25.033Z,97.92
2023-01-03T21:37:53.060Z,97.68
2023-01-03T21:40:28.083Z,98.11
2023-01-03T21:43:03.614Z,97.71
2023-01-03T21:45:35.274Z,98.19
2023-01-03T21:48:05.213Z,98.09
2023-01-03T21:50:33.023Z,98.09
2023-01-03T21:52:59.962Z,98.11
2023-01-03T21:55:26.956Z,98.00
2023-01-03T21:57:53.695Z,98.03
2023-01-03T22:00:20.385Z,98.26
2023-01-03T22:03:05.796Z,98.08
2023-01-03T22:05:32.957Z,97.95
2023-01-03T22:08:03.694Z,98.44
2023-01-03T22:10:30.613Z,98.59
2023-01-03T22:13:00.828Z,98.14
2023-01-03T22:15:27.613Z,97.96
2023-01-03T22:17:54.731Z,98.23
2023-01-03T22:20:26.080Z,98.64
2023-01-03T22:22:53.268Z,98.14
2023-01-03T22:25:22.167Z,98.55
2023-01-03T22:27:48.968Z,97.62
2023-01-03T22:30:18.086Z,98.73
2023-01-03T22:32:45.491Z,98.26
2023-01-03T22:35:13.594Z,98.63
2023-01-03T22:37:40.317Z,98.19
2023-01-03T22:40:12.109Z,98.40
2023-01-03T22:42:39.897Z,98.07
2023-01-03T22:45:07.620Z,98.52
2023-01-03T22:47:38.368Z,98.42
2023-01-03T22:50:07.092Z,98.70
2023-01-03T22:52:34.960Z,98.58
2023-01-03T22:55:01.724Z,98.46
2023-01-03T22:57:28.259Z,98.86
2023-01-03T22:59:54.798Z,99.12
2023-01-03T23:02:27.919Z,99.06
2023-01-03T23:04:55.764Z,98.58
2023-01-03T23:07:22.312Z,98.76
2023-01-03T23:09:48.980Z,98.54
2023-01-03T23:12:34.172Z,98.35
2023-01-03T23:15:00.721Z,98.32
2023-01-03T23:17:45.894Z,97.69
2023-01-03T23:20:12.574Z,97.68
2023-01-03T23:22:39.506Z,97.76
2023-01-03T23:25:06.337Z,97.56
2023-01-03T23:27:32.912Z,97.36
2023-01-03T23:29:59.928Z,97.23
2023-01-03T23:32:28.448Z,96.90
2023-01-03T23:34:54.970Z,97.00
2023-01-03T23:37:21.513Z,96.78
2023-01-03T23:39:50.169Z,96.36
2023-01-03T23:42:17.112Z,96.22
2023-01-03T23:44:43.680Z,96.39
2023-01-03T23:47:12.321Z,96.20
2023-01-03T23:49:39.827Z,95.77
2023-01-03T23:52:06.604Z,95.88
2023-01-03T23:54:33.158Z,95.66
2023-01-03T23:56:59.717Z,95.66
2023-01-03T23:59:26.245Z,95.80
